LDG48 EGBO-EGMD
Flight info
| Callsign | LDG48 |
|---|---|
| Flight time | 1h 21m |
| Altitude | 11000 |
| Route | VIDOK L151 KIDLI N859 CPT L9 EMKAD M91 LYD |
| Aircraft | DA42/L-SBDGRY/S |
Departure
| Time | 2026-04-28 00:00 |
|---|---|
| Airport | Wolverhampton Halfpenny Green Airport (EGBO) |
Arrival
| Time | 2026-04-28 01:22 |
|---|---|
| Airport | Lydd London Ashford Airport (EGMD) |
| Time | Latitude | Longitude | Altitude | Speed | Heading |
|---|---|---|---|---|---|
| 2026-04-27 23:46 | 52.51473 | -2.26170 | 272 ft | 0 kts | 36° |
| 2026-04-27 23:48 | 52.51473 | -2.26171 | 272 ft | 0 kts | 36° |
| 2026-04-27 23:50 | 52.51472 | -2.26171 | 272 ft | 0 kts | 36° |
| 2026-04-27 23:55 | 52.51473 | -2.26170 | 272 ft | 1 kts | 32° |
| 2026-04-27 23:55 | 52.51488 | -2.26157 | 272 ft | 4 kts | 46° |
| 2026-04-27 23:55 | 52.51483 | -2.26134 | 272 ft | 9 kts | 147° |
| 2026-04-27 23:56 | 52.51416 | -2.26030 | 273 ft | 13 kts | 150° |
| 2026-04-27 23:56 | 52.51342 | -2.25971 | 273 ft | 11 kts | 169° |
| 2026-04-27 23:56 | 52.51332 | -2.25964 | 273 ft | 1 kts | 19° |
| 2026-04-27 23:56 | 52.51330 | -2.25972 | 274 ft | 0 kts | 144° |
| 2026-04-27 23:57 | 52.51329 | -2.25970 | 274 ft | 1 kts | 126° |
| 2026-04-27 23:57 | 52.51332 | -2.25961 | 273 ft | 0 kts | 49° |
| 2026-04-27 23:58 | 52.51334 | -2.25964 | 273 ft | 3 kts | 138° |
| 2026-04-27 23:58 | 52.51259 | -2.25652 | 284 ft | 0 kts | 98° |
| 2026-04-27 23:59 | 52.51263 | -2.25656 | 284 ft | 5 kts | 174° |
| 2026-04-27 23:59 | 52.51253 | -2.25662 | 284 ft | 11 kts | 150° |
| 2026-04-27 23:59 | 52.51238 | -2.25634 | 284 ft | 3 kts | 105° |
| 2026-04-27 23:59 | 52.51247 | -2.25600 | 285 ft | 1 kts | 347° |
| 2026-04-28 00:00 | 52.51390 | -2.25697 | 281 ft | 53 kts | 337° |
| 2026-04-28 00:00 | 52.51865 | -2.26050 | 335 ft | 86 kts | 336° |
| 2026-04-28 00:00 | 52.52398 | -2.26483 | 673 ft | 85 kts | 333° |
| 2026-04-28 00:00 | 52.52935 | -2.26925 | 996 ft | 88 kts | 317° |
| 2026-04-28 00:01 | 52.53419 | -2.27539 | 1341 ft | 87 kts | 350° |
| 2026-04-28 00:01 | 52.53942 | -2.27343 | 1730 ft | 77 kts | 37° |
| 2026-04-28 00:01 | 52.54270 | -2.26643 | 2037 ft | 79 kts | 53° |
| 2026-04-28 00:01 | 52.54445 | -2.25765 | 2324 ft | 85 kts | 81° |
| 2026-04-28 00:02 | 52.54302 | -2.24805 | 2775 ft | 92 kts | 104° |
| 2026-04-28 00:02 | 52.53863 | -2.23978 | 3105 ft | 97 kts | 127° |
| 2026-04-28 00:02 | 52.53521 | -2.23490 | 3281 ft | 99 kts | 128° |
| 2026-04-28 00:02 | 52.52833 | -2.22476 | 3691 ft | 102 kts | 128° |
| 2026-04-28 00:03 | 52.52312 | -2.21696 | 4112 ft | 102 kts | 128° |
| 2026-04-28 00:03 | 52.51790 | -2.20893 | 4482 ft | 104 kts | 127° |
| 2026-04-28 00:03 | 52.51439 | -2.20352 | 4739 ft | 105 kts | 128° |
| 2026-04-28 00:03 | 52.50906 | -2.19527 | 5133 ft | 106 kts | 127° |
| 2026-04-28 00:04 | 52.50369 | -2.18685 | 5509 ft | 107 kts | 127° |
| 2026-04-28 00:04 | 52.49278 | -2.16988 | 6334 ft | 109 kts | 127° |
| 2026-04-28 00:04 | 52.48726 | -2.16127 | 6730 ft | 110 kts | 127° |
| 2026-04-28 00:05 | 52.48174 | -2.15260 | 7120 ft | 110 kts | 127° |
| 2026-04-28 00:05 | 52.47616 | -2.14387 | 7493 ft | 111 kts | 127° |
| 2026-04-28 00:05 | 52.47051 | -2.13504 | 7866 ft | 112 kts | 127° |
| 2026-04-28 00:05 | 52.46485 | -2.12618 | 8256 ft | 113 kts | 127° |
| 2026-04-28 00:06 | 52.45913 | -2.11725 | 8640 ft | 114 kts | 127° |
| 2026-04-28 00:06 | 52.45336 | -2.10827 | 9060 ft | 115 kts | 127° |
| 2026-04-28 00:06 | 52.44754 | -2.09918 | 9457 ft | 116 kts | 127° |
| 2026-04-28 00:06 | 52.44176 | -2.09016 | 9847 ft | 117 kts | 127° |
| 2026-04-28 00:07 | 52.43585 | -2.08093 | 10249 ft | 117 kts | 128° |
| 2026-04-28 00:07 | 52.42991 | -2.07166 | 10609 ft | 119 kts | 127° |
| 2026-04-28 00:07 | 52.42390 | -2.06230 | 10975 ft | 119 kts | 127° |
| 2026-04-28 00:07 | 52.41786 | -2.05290 | 11337 ft | 123 kts | 127° |
| 2026-04-28 00:08 | 52.41092 | -2.04224 | 11349 ft | 147 kts | 135° |
| 2026-04-28 00:08 | 52.40199 | -2.03222 | 11346 ft | 164 kts | 141° |
| 2026-04-28 00:08 | 52.39198 | -2.02146 | 11345 ft | 179 kts | 141° |
| 2026-04-28 00:08 | 52.38149 | -2.01022 | 11344 ft | 182 kts | 142° |
| 2026-04-28 00:09 | 52.37089 | -1.99884 | 11342 ft | 182 kts | 141° |
| 2026-04-28 00:09 | 52.36036 | -1.98743 | 11345 ft | 181 kts | 141° |
| 2026-04-28 00:09 | 52.34980 | -1.97598 | 11340 ft | 181 kts | 141° |
| 2026-04-28 00:09 | 52.33926 | -1.96459 | 11345 ft | 181 kts | 141° |
| 2026-04-28 00:10 | 52.32872 | -1.95322 | 11346 ft | 182 kts | 141° |
| 2026-04-28 00:10 | 52.31809 | -1.94178 | 11345 ft | 183 kts | 141° |
| 2026-04-28 00:10 | 52.30747 | -1.93034 | 11342 ft | 182 kts | 141° |
| 2026-04-28 00:10 | 52.29689 | -1.91896 | 11346 ft | 182 kts | 141° |
| 2026-04-28 00:11 | 52.28627 | -1.90751 | 11345 ft | 183 kts | 141° |
| 2026-04-28 00:11 | 52.27560 | -1.89604 | 11342 ft | 184 kts | 141° |
| 2026-04-28 00:11 | 52.26494 | -1.88460 | 11343 ft | 183 kts | 141° |
| 2026-04-28 00:11 | 52.25443 | -1.87332 | 11344 ft | 183 kts | 141° |
| 2026-04-28 00:12 | 52.24379 | -1.86190 | 11340 ft | 182 kts | 141° |
| 2026-04-28 00:12 | 52.23315 | -1.85048 | 11337 ft | 182 kts | 141° |
| 2026-04-28 00:12 | 52.22256 | -1.83913 | 11336 ft | 182 kts | 141° |
| 2026-04-28 00:12 | 52.21196 | -1.82774 | 11336 ft | 183 kts | 141° |
| 2026-04-28 00:13 | 52.20129 | -1.81632 | 11333 ft | 183 kts | 141° |
| 2026-04-28 00:13 | 52.19064 | -1.80492 | 11334 ft | 182 kts | 141° |
| 2026-04-28 00:13 | 52.18017 | -1.79372 | 11314 ft | 182 kts | 141° |
| 2026-04-28 00:13 | 52.16959 | -1.78241 | 11312 ft | 182 kts | 141° |
| 2026-04-28 00:14 | 52.15900 | -1.77110 | 11314 ft | 182 kts | 141° |
| 2026-04-28 00:14 | 52.14842 | -1.75979 | 11312 ft | 182 kts | 142° |
| 2026-04-28 00:14 | 52.13787 | -1.74852 | 11313 ft | 181 kts | 142° |
| 2026-04-28 00:14 | 52.12733 | -1.73729 | 11309 ft | 181 kts | 142° |
| 2026-04-28 00:15 | 52.11679 | -1.72607 | 11311 ft | 181 kts | 141° |
| 2026-04-28 00:15 | 52.10626 | -1.71484 | 11313 ft | 181 kts | 141° |
| 2026-04-28 00:15 | 52.09569 | -1.70357 | 11311 ft | 181 kts | 141° |
| 2026-04-28 00:15 | 52.08526 | -1.69248 | 11308 ft | 182 kts | 142° |
| 2026-04-28 00:16 | 52.07454 | -1.68108 | 11309 ft | 181 kts | 141° |
| 2026-04-28 00:16 | 52.06413 | -1.67001 | 11309 ft | 181 kts | 141° |
| 2026-04-28 00:16 | 52.05356 | -1.65878 | 11307 ft | 182 kts | 142° |
| 2026-04-28 00:16 | 52.04297 | -1.64753 | 11307 ft | 181 kts | 142° |
| 2026-04-28 00:17 | 52.03241 | -1.63633 | 11310 ft | 181 kts | 141° |
| 2026-04-28 00:17 | 52.02184 | -1.62512 | 11310 ft | 181 kts | 141° |
| 2026-04-28 00:17 | 52.01127 | -1.61392 | 11309 ft | 181 kts | 142° |
| 2026-04-28 00:17 | 52.00071 | -1.60274 | 11307 ft | 181 kts | 142° |
| 2026-04-28 00:18 | 51.99016 | -1.59156 | 11310 ft | 181 kts | 142° |
| 2026-04-28 00:18 | 51.97960 | -1.58038 | 11308 ft | 181 kts | 142° |
| 2026-04-28 00:18 | 51.96900 | -1.56917 | 11302 ft | 181 kts | 142° |
| 2026-04-28 00:18 | 51.95846 | -1.55804 | 11304 ft | 181 kts | 142° |
| 2026-04-28 00:19 | 51.94793 | -1.54692 | 11305 ft | 181 kts | 142° |
| 2026-04-28 00:19 | 51.93753 | -1.53595 | 11306 ft | 181 kts | 142° |
| 2026-04-28 00:19 | 51.92688 | -1.52467 | 11303 ft | 186 kts | 142° |
| 2026-04-28 00:19 | 51.91584 | -1.51301 | 11301 ft | 191 kts | 142° |
| 2026-04-28 00:20 | 51.90465 | -1.50122 | 11300 ft | 192 kts | 142° |
| 2026-04-28 00:20 | 51.89348 | -1.48949 | 11299 ft | 191 kts | 142° |
| 2026-04-28 00:20 | 51.88234 | -1.47778 | 11301 ft | 191 kts | 142° |
| 2026-04-28 00:20 | 51.87123 | -1.46610 | 11302 ft | 190 kts | 142° |
| 2026-04-28 00:21 | 51.86029 | -1.45459 | 11302 ft | 190 kts | 142° |
| 2026-04-28 00:21 | 51.84921 | -1.44295 | 11302 ft | 190 kts | 142° |
| 2026-04-28 00:21 | 51.83815 | -1.43134 | 11305 ft | 190 kts | 142° |
| 2026-04-28 00:21 | 51.82706 | -1.41970 | 11302 ft | 190 kts | 142° |
| 2026-04-28 00:22 | 51.81596 | -1.40805 | 11301 ft | 190 kts | 142° |
| 2026-04-28 00:22 | 51.80487 | -1.39642 | 11303 ft | 190 kts | 142° |
| 2026-04-28 00:22 | 51.79382 | -1.38485 | 11304 ft | 189 kts | 142° |
| 2026-04-28 00:22 | 51.78273 | -1.37325 | 11295 ft | 190 kts | 142° |
| 2026-04-28 00:23 | 51.77143 | -1.36202 | 11295 ft | 192 kts | 150° |
| 2026-04-28 00:23 | 51.75875 | -1.35480 | 11297 ft | 193 kts | 159° |
| 2026-04-28 00:23 | 51.74609 | -1.34838 | 11301 ft | 193 kts | 160° |
| 2026-04-28 00:23 | 51.73325 | -1.34193 | 11297 ft | 193 kts | 160° |
| 2026-04-28 00:24 | 51.72043 | -1.33543 | 11296 ft | 193 kts | 160° |
| 2026-04-28 00:24 | 51.70761 | -1.32891 | 11301 ft | 193 kts | 160° |
| 2026-04-28 00:24 | 51.69479 | -1.32240 | 11298 ft | 193 kts | 160° |
| 2026-04-28 00:24 | 51.68202 | -1.31592 | 11297 ft | 193 kts | 160° |
| 2026-04-28 00:25 | 51.66922 | -1.30943 | 11300 ft | 193 kts | 160° |
| 2026-04-28 00:25 | 51.65640 | -1.30292 | 11301 ft | 193 kts | 160° |
| 2026-04-28 00:25 | 51.64376 | -1.29652 | 11299 ft | 192 kts | 160° |
| 2026-04-28 00:25 | 51.63093 | -1.29003 | 11299 ft | 192 kts | 160° |
| 2026-04-28 00:26 | 51.61816 | -1.28357 | 11301 ft | 192 kts | 160° |
| 2026-04-28 00:26 | 51.60536 | -1.27710 | 11301 ft | 192 kts | 159° |
| 2026-04-28 00:26 | 51.59261 | -1.27065 | 11301 ft | 192 kts | 159° |
| 2026-04-28 00:26 | 51.57984 | -1.26420 | 11302 ft | 192 kts | 160° |
| 2026-04-28 00:27 | 51.56706 | -1.25773 | 11301 ft | 193 kts | 160° |
| 2026-04-28 00:27 | 51.55426 | -1.25129 | 11302 ft | 193 kts | 160° |
| 2026-04-28 00:27 | 51.54148 | -1.24483 | 11301 ft | 192 kts | 160° |
| 2026-04-28 00:27 | 51.52870 | -1.23840 | 11300 ft | 192 kts | 160° |
| 2026-04-28 00:28 | 51.51588 | -1.23194 | 11301 ft | 193 kts | 160° |
| 2026-04-28 00:28 | 51.50366 | -1.22401 | 11297 ft | 190 kts | 144° |
| 2026-04-28 00:28 | 51.49408 | -1.21005 | 11296 ft | 183 kts | 121° |
| 2026-04-28 00:28 | 51.48852 | -1.19228 | 11292 ft | 175 kts | 99° |
| 2026-04-28 00:29 | 51.48607 | -1.17333 | 11295 ft | 173 kts | 93° |
| 2026-04-28 00:29 | 51.48382 | -1.15434 | 11295 ft | 173 kts | 93° |
| 2026-04-28 00:29 | 51.48159 | -1.13539 | 11295 ft | 173 kts | 93° |
| 2026-04-28 00:29 | 51.47935 | -1.11640 | 11296 ft | 173 kts | 93° |
| 2026-04-28 00:30 | 51.47709 | -1.09737 | 11297 ft | 173 kts | 93° |
| 2026-04-28 00:30 | 51.47486 | -1.07834 | 11297 ft | 173 kts | 93° |
| 2026-04-28 00:30 | 51.47270 | -1.05935 | 11298 ft | 173 kts | 93° |
| 2026-04-28 00:30 | 51.47055 | -1.04033 | 11299 ft | 173 kts | 93° |
| 2026-04-28 00:31 | 51.46835 | -1.02151 | 11298 ft | 173 kts | 93° |
| 2026-04-28 00:31 | 51.46607 | -1.00245 | 11297 ft | 174 kts | 93° |
| 2026-04-28 00:31 | 51.46378 | -0.98342 | 11298 ft | 174 kts | 93° |
| 2026-04-28 00:31 | 51.46152 | -0.96461 | 11300 ft | 174 kts | 93° |
| 2026-04-28 00:32 | 51.45923 | -0.94555 | 11293 ft | 174 kts | 93° |
| 2026-04-28 00:32 | 51.45694 | -0.92653 | 11295 ft | 174 kts | 94° |
| 2026-04-28 00:32 | 51.45462 | -0.90748 | 11295 ft | 174 kts | 94° |
| 2026-04-28 00:32 | 51.45232 | -0.88842 | 11280 ft | 174 kts | 94° |
| 2026-04-28 00:33 | 51.45002 | -0.86944 | 11283 ft | 173 kts | 93° |
| 2026-04-28 00:33 | 51.44772 | -0.85046 | 11280 ft | 174 kts | 94° |
| 2026-04-28 00:33 | 51.44540 | -0.83135 | 11276 ft | 174 kts | 94° |
| 2026-04-28 00:33 | 51.44308 | -0.81229 | 11276 ft | 174 kts | 94° |
| 2026-04-28 00:34 | 51.44076 | -0.79323 | 11278 ft | 174 kts | 94° |
| 2026-04-28 00:34 | 51.43843 | -0.77414 | 11278 ft | 175 kts | 94° |
| 2026-04-28 00:34 | 51.43613 | -0.75524 | 11280 ft | 175 kts | 94° |
| 2026-04-28 00:34 | 51.43379 | -0.73610 | 11280 ft | 175 kts | 94° |
| 2026-04-28 00:35 | 51.43144 | -0.71694 | 11276 ft | 174 kts | 94° |
| 2026-04-28 00:35 | 51.42910 | -0.69785 | 11298 ft | 175 kts | 94° |
| 2026-04-28 00:35 | 51.42674 | -0.67869 | 11299 ft | 175 kts | 94° |
| 2026-04-28 00:35 | 51.42439 | -0.65955 | 11296 ft | 175 kts | 94° |
| 2026-04-28 00:36 | 51.42206 | -0.64066 | 11301 ft | 175 kts | 94° |
| 2026-04-28 00:36 | 51.41970 | -0.62150 | 11301 ft | 175 kts | 94° |
| 2026-04-28 00:36 | 51.41733 | -0.60231 | 11299 ft | 175 kts | 94° |
| 2026-04-28 00:36 | 51.41496 | -0.58314 | 11304 ft | 175 kts | 94° |
| 2026-04-28 00:37 | 51.41259 | -0.56402 | 11302 ft | 175 kts | 94° |
| 2026-04-28 00:37 | 51.41022 | -0.54492 | 11303 ft | 175 kts | 94° |
| 2026-04-28 00:37 | 51.40787 | -0.52605 | 11303 ft | 175 kts | 94° |
| 2026-04-28 00:37 | 51.40549 | -0.50689 | 11305 ft | 175 kts | 94° |
| 2026-04-28 00:38 | 51.40310 | -0.48774 | 11300 ft | 175 kts | 94° |
| 2026-04-28 00:38 | 51.40071 | -0.46858 | 11303 ft | 175 kts | 94° |
| 2026-04-28 00:38 | 51.39831 | -0.44939 | 11303 ft | 175 kts | 94° |
| 2026-04-28 00:38 | 51.39595 | -0.43051 | 11305 ft | 175 kts | 94° |
| 2026-04-28 00:39 | 51.39356 | -0.41142 | 11303 ft | 175 kts | 94° |
| 2026-04-28 00:39 | 51.39116 | -0.39227 | 11304 ft | 175 kts | 94° |
| 2026-04-28 00:39 | 51.38875 | -0.37309 | 11302 ft | 175 kts | 94° |
| 2026-04-28 00:39 | 51.38634 | -0.35397 | 11301 ft | 176 kts | 94° |
| 2026-04-28 00:40 | 51.38392 | -0.33472 | 11302 ft | 176 kts | 95° |
| 2026-04-28 00:40 | 51.38148 | -0.31530 | 11296 ft | 178 kts | 95° |
| 2026-04-28 00:40 | 51.37905 | -0.29613 | 11294 ft | 178 kts | 95° |
| 2026-04-28 00:40 | 51.37658 | -0.27663 | 11296 ft | 178 kts | 95° |
| 2026-04-28 00:41 | 51.37412 | -0.25727 | 11293 ft | 177 kts | 95° |
| 2026-04-28 00:41 | 51.37167 | -0.23799 | 11291 ft | 177 kts | 95° |
| 2026-04-28 00:41 | 51.36922 | -0.21872 | 11293 ft | 177 kts | 95° |
| 2026-04-28 00:41 | 51.36677 | -0.19944 | 11296 ft | 176 kts | 95° |
| 2026-04-28 00:42 | 51.36432 | -0.18019 | 11298 ft | 176 kts | 95° |
| 2026-04-28 00:42 | 51.36187 | -0.16094 | 11300 ft | 177 kts | 95° |
| 2026-04-28 00:42 | 51.35943 | -0.14190 | 11302 ft | 177 kts | 95° |
| 2026-04-28 00:42 | 51.35697 | -0.12263 | 11303 ft | 177 kts | 95° |
| 2026-04-28 00:43 | 51.35449 | -0.10331 | 11301 ft | 177 kts | 95° |
| 2026-04-28 00:43 | 51.35202 | -0.08406 | 11301 ft | 176 kts | 95° |
| 2026-04-28 00:43 | 51.34955 | -0.06482 | 11302 ft | 176 kts | 95° |
| 2026-04-28 00:43 | 51.34706 | -0.04555 | 11301 ft | 176 kts | 95° |
| 2026-04-28 00:44 | 51.34459 | -0.02630 | 11301 ft | 177 kts | 95° |
| 2026-04-28 00:44 | 51.34211 | -0.00706 | 11304 ft | 177 kts | 95° |
| 2026-04-28 00:44 | 51.33964 | 0.01205 | 11302 ft | 177 kts | 95° |
| 2026-04-28 00:44 | 51.33715 | 0.03129 | 11305 ft | 177 kts | 96° |
| 2026-04-28 00:45 | 51.33465 | 0.05055 | 11304 ft | 177 kts | 96° |
| 2026-04-28 00:45 | 51.33216 | 0.06982 | 11304 ft | 177 kts | 96° |
| 2026-04-28 00:45 | 51.32965 | 0.08910 | 11303 ft | 177 kts | 96° |
| 2026-04-28 00:45 | 51.32713 | 0.10843 | 11304 ft | 177 kts | 96° |
| 2026-04-28 00:46 | 51.32465 | 0.12746 | 11304 ft | 177 kts | 96° |
| 2026-04-28 00:46 | 51.32214 | 0.14679 | 11302 ft | 177 kts | 96° |
| 2026-04-28 00:46 | 51.31961 | 0.16607 | 11298 ft | 177 kts | 96° |
| 2026-04-28 00:46 | 51.31709 | 0.18539 | 11301 ft | 177 kts | 96° |
| 2026-04-28 00:47 | 51.31457 | 0.20467 | 11297 ft | 177 kts | 96° |
| 2026-04-28 00:47 | 51.31205 | 0.22384 | 11297 ft | 176 kts | 96° |
| 2026-04-28 00:47 | 51.30954 | 0.24291 | 11298 ft | 175 kts | 96° |
| 2026-04-28 00:47 | 51.30703 | 0.26201 | 11299 ft | 176 kts | 97° |
| 2026-04-28 00:48 | 51.30452 | 0.28113 | 11417 ft | 176 kts | 97° |
| 2026-04-28 00:48 | 51.30202 | 0.30008 | 11425 ft | 176 kts | 97° |
| 2026-04-28 00:48 | 51.29949 | 0.31921 | 11432 ft | 176 kts | 97° |
| 2026-04-28 00:48 | 51.29694 | 0.33851 | 11434 ft | 177 kts | 97° |
| 2026-04-28 00:49 | 51.29440 | 0.35772 | 11441 ft | 177 kts | 97° |
| 2026-04-28 00:49 | 51.29184 | 0.37700 | 11444 ft | 177 kts | 97° |
| 2026-04-28 00:49 | 51.28930 | 0.39609 | 11450 ft | 177 kts | 97° |
| 2026-04-28 00:49 | 51.28675 | 0.41534 | 11453 ft | 177 kts | 97° |
| 2026-04-28 00:50 | 51.28501 | 0.42835 | 11453 ft | 177 kts | 97° |
| 2026-04-28 00:50 | 51.28245 | 0.44755 | 11455 ft | 177 kts | 97° |
| 2026-04-28 00:50 | 51.27992 | 0.46659 | 11453 ft | 177 kts | 97° |
| 2026-04-28 00:50 | 51.27734 | 0.48585 | 11452 ft | 177 kts | 97° |
| 2026-04-28 00:51 | 51.27476 | 0.50515 | 11449 ft | 177 kts | 98° |
| 2026-04-28 00:51 | 51.27217 | 0.52445 | 11448 ft | 177 kts | 97° |
| 2026-04-28 00:51 | 51.26960 | 0.54370 | 11445 ft | 177 kts | 97° |
| 2026-04-28 00:51 | 51.26700 | 0.56299 | 11442 ft | 177 kts | 98° |
| 2026-04-28 00:52 | 51.26445 | 0.58195 | 11436 ft | 176 kts | 98° |
| 2026-04-28 00:52 | 51.26187 | 0.60117 | 11430 ft | 176 kts | 98° |
| 2026-04-28 00:52 | 51.25928 | 0.62034 | 11426 ft | 177 kts | 98° |
| 2026-04-28 00:52 | 51.25668 | 0.63956 | 11419 ft | 177 kts | 98° |
| 2026-04-28 00:53 | 51.25412 | 0.65854 | 11415 ft | 176 kts | 98° |
| 2026-04-28 00:53 | 51.25152 | 0.67772 | 11407 ft | 176 kts | 98° |
| 2026-04-28 00:53 | 51.24893 | 0.69684 | 11398 ft | 176 kts | 98° |
| 2026-04-28 00:53 | 51.24574 | 0.71576 | 11385 ft | 179 kts | 112° |
| 2026-04-28 00:54 | 51.24063 | 0.72614 | 11384 ft | 182 kts | 139° |
| 2026-04-28 00:54 | 51.23390 | 0.73197 | 11388 ft | 183 kts | 162° |
| 2026-04-28 00:54 | 51.22136 | 0.73171 | 11390 ft | 182 kts | 201° |
| 2026-04-28 00:54 | 51.21168 | 0.72005 | 11398 ft | 176 kts | 240° |
| 2026-04-28 00:55 | 51.20856 | 0.70204 | 11406 ft | 167 kts | 278° |
| 2026-04-28 00:55 | 51.21236 | 0.68494 | 11411 ft | 163 kts | 300° |
| 2026-04-28 00:55 | 51.21640 | 0.66785 | 11413 ft | 166 kts | 290° |
| 2026-04-28 00:55 | 51.21921 | 0.64997 | 11418 ft | 166 kts | 287° |
| 2026-04-28 00:56 | 51.22165 | 0.63192 | 11425 ft | 166 kts | 286° |
| 2026-04-28 00:56 | 51.22431 | 0.61399 | 11428 ft | 165 kts | 295° |
| 2026-04-28 00:56 | 51.23116 | 0.60032 | 11432 ft | 160 kts | 329° |
| 2026-04-28 00:56 | 51.24166 | 0.59576 | 11435 ft | 159 kts | 2° |
| 2026-04-28 00:57 | 51.25190 | 0.60201 | 11434 ft | 163 kts | 36° |
| 2026-04-28 00:57 | 51.25794 | 0.61738 | 11426 ft | 171 kts | 72° |
| 2026-04-28 00:57 | 51.25738 | 0.63662 | 11421 ft | 176 kts | 97° |
| 2026-04-28 00:57 | 51.25476 | 0.65558 | 11410 ft | 177 kts | 99° |
| 2026-04-28 00:58 | 51.25200 | 0.67475 | 11405 ft | 176 kts | 98° |
| 2026-04-28 00:58 | 51.24934 | 0.69389 | 11396 ft | 176 kts | 98° |
| 2026-04-28 00:58 | 51.24648 | 0.71296 | 11383 ft | 178 kts | 107° |
| 2026-04-28 00:58 | 51.23885 | 0.72822 | 11382 ft | 182 kts | 145° |
| 2026-04-28 00:59 | 51.22668 | 0.73337 | 11389 ft | 183 kts | 185° |
| 2026-04-28 00:59 | 51.21512 | 0.72609 | 11394 ft | 179 kts | 224° |
| 2026-04-28 00:59 | 51.20889 | 0.70993 | 11404 ft | 171 kts | 262° |
| 2026-04-28 00:59 | 51.21021 | 0.69185 | 11413 ft | 164 kts | 297° |
| 2026-04-28 01:00 | 51.21490 | 0.67520 | 11410 ft | 165 kts | 293° |
| 2026-04-28 01:00 | 51.21811 | 0.65755 | 11417 ft | 166 kts | 288° |
| 2026-04-28 01:00 | 51.22061 | 0.63971 | 11425 ft | 166 kts | 286° |
| 2026-04-28 01:00 | 51.22301 | 0.62165 | 11431 ft | 166 kts | 286° |
| 2026-04-28 01:01 | 51.22761 | 0.60520 | 11428 ft | 162 kts | 314° |
| 2026-04-28 01:01 | 51.23705 | 0.59635 | 11436 ft | 159 kts | 348° |
| 2026-04-28 01:01 | 51.24793 | 0.59812 | 11440 ft | 161 kts | 21° |
| 2026-04-28 01:01 | 51.25621 | 0.61021 | 11430 ft | 168 kts | 57° |
| 2026-04-28 01:02 | 51.25822 | 0.62878 | 11425 ft | 176 kts | 93° |
| 2026-04-28 01:02 | 51.25590 | 0.64814 | 11412 ft | 178 kts | 99° |
| 2026-04-28 01:02 | 51.25311 | 0.66716 | 11406 ft | 178 kts | 99° |
| 2026-04-28 01:02 | 51.25037 | 0.68644 | 11397 ft | 178 kts | 98° |
| 2026-04-28 01:03 | 51.24773 | 0.70567 | 11394 ft | 177 kts | 98° |
| 2026-04-28 01:03 | 51.24241 | 0.72350 | 11382 ft | 183 kts | 131° |
| 2026-04-28 01:03 | 51.23135 | 0.73315 | 11391 ft | 185 kts | 169° |
| 2026-04-28 01:03 | 51.21894 | 0.73063 | 11390 ft | 183 kts | 208° |
| 2026-04-28 01:04 | 51.20999 | 0.71708 | 11394 ft | 176 kts | 247° |
| 2026-04-28 01:04 | 51.20820 | 0.69864 | 11404 ft | 167 kts | 285° |
| 2026-04-28 01:04 | 51.20892 | 0.68004 | 11344 ft | 176 kts | 262° |
| 2026-04-28 01:04 | 51.20255 | 0.66323 | 11161 ft | 183 kts | 224° |
| 2026-04-28 01:05 | 51.19087 | 0.65537 | 10988 ft | 186 kts | 186° |
| 2026-04-28 01:05 | 51.17843 | 0.65978 | 10810 ft | 185 kts | 148° |
| 2026-04-28 01:05 | 51.16985 | 0.67434 | 10638 ft | 180 kts | 118° |
| 2026-04-28 01:05 | 51.16299 | 0.69095 | 10434 ft | 178 kts | 125° |
| 2026-04-28 01:06 | 51.15407 | 0.70425 | 10237 ft | 175 kts | 140° |
| 2026-04-28 01:06 | 51.14419 | 0.71552 | 10011 ft | 175 kts | 143° |
| 2026-04-28 01:06 | 51.13420 | 0.72656 | 9793 ft | 175 kts | 142° |
| 2026-04-28 01:06 | 51.12542 | 0.73950 | 9554 ft | 171 kts | 116° |
| 2026-04-28 01:07 | 51.12327 | 0.75694 | 9220 ft | 161 kts | 76° |
| 2026-04-28 01:07 | 51.12586 | 0.77420 | 9052 ft | 157 kts | 76° |
| 2026-04-28 01:07 | 51.12698 | 0.79110 | 8927 ft | 154 kts | 82° |
| 2026-04-28 01:07 | 51.12623 | 0.80811 | 8786 ft | 155 kts | 97° |
| 2026-04-28 01:08 | 51.12350 | 0.82468 | 8664 ft | 154 kts | 101° |
| 2026-04-28 01:08 | 51.12071 | 0.84104 | 8530 ft | 152 kts | 100° |
| 2026-04-28 01:08 | 51.11806 | 0.85735 | 8403 ft | 151 kts | 99° |
| 2026-04-28 01:08 | 51.11549 | 0.87351 | 8270 ft | 150 kts | 99° |
| 2026-04-28 01:09 | 51.11294 | 0.88957 | 8145 ft | 149 kts | 99° |
| 2026-04-28 01:09 | 51.11042 | 0.90537 | 8016 ft | 148 kts | 99° |
| 2026-04-28 01:09 | 51.10789 | 0.92125 | 7887 ft | 148 kts | 99° |
| 2026-04-28 01:09 | 51.10538 | 0.93702 | 7761 ft | 147 kts | 99° |
| 2026-04-28 01:10 | 51.10289 | 0.95270 | 7636 ft | 145 kts | 99° |
| 2026-04-28 01:10 | 51.10040 | 0.96822 | 7510 ft | 144 kts | 99° |
| 2026-04-28 01:10 | 51.09792 | 0.98376 | 7385 ft | 144 kts | 99° |
| 2026-04-28 01:10 | 51.09545 | 0.99919 | 7257 ft | 144 kts | 99° |
| 2026-04-28 01:11 | 51.09271 | 1.01436 | 7132 ft | 145 kts | 108° |
| 2026-04-28 01:11 | 51.08685 | 1.02742 | 7009 ft | 148 kts | 137° |
| 2026-04-28 01:11 | 51.07766 | 1.03459 | 6883 ft | 148 kts | 168° |
| 2026-04-28 01:11 | 51.06749 | 1.03388 | 6765 ft | 146 kts | 199° |
| 2026-04-28 01:12 | 51.05835 | 1.02706 | 6655 ft | 145 kts | 210° |
| 2026-04-28 01:12 | 51.04947 | 1.01958 | 6520 ft | 144 kts | 210° |
| 2026-04-28 01:12 | 51.04065 | 1.01214 | 6371 ft | 144 kts | 210° |
| 2026-04-28 01:12 | 51.03142 | 1.00436 | 6049 ft | 155 kts | 209° |
| 2026-04-28 01:13 | 51.02289 | 0.99386 | 5733 ft | 158 kts | 239° |
| 2026-04-28 01:13 | 51.02372 | 0.96105 | 5110 ft | 155 kts | 294° |
| 2026-04-28 01:13 | 51.02726 | 0.94573 | 4748 ft | 146 kts | 295° |
| 2026-04-28 01:14 | 51.03216 | 0.93229 | 4347 ft | 138 kts | 325° |
| 2026-04-28 01:14 | 51.04080 | 0.92826 | 3956 ft | 130 kts | 10° |
| 2026-04-28 01:14 | 51.04906 | 0.93337 | 3586 ft | 127 kts | 27° |
| 2026-04-28 01:14 | 51.05696 | 0.93965 | 3195 ft | 126 kts | 28° |
| 2026-04-28 01:15 | 51.06437 | 0.94554 | 3090 ft | 108 kts | 28° |
| 2026-04-28 01:15 | 51.07059 | 0.95043 | 3095 ft | 93 kts | 28° |
| 2026-04-28 01:15 | 51.07645 | 0.95510 | 3115 ft | 101 kts | 28° |
| 2026-04-28 01:15 | 51.08318 | 0.96050 | 3123 ft | 114 kts | 28° |
| 2026-04-28 01:16 | 51.09064 | 0.96651 | 3117 ft | 124 kts | 28° |
| 2026-04-28 01:16 | 51.09840 | 0.97278 | 3119 ft | 128 kts | 28° |
| 2026-04-28 01:16 | 51.10647 | 0.97928 | 3115 ft | 131 kts | 28° |
| 2026-04-28 01:16 | 51.11463 | 0.98590 | 3123 ft | 132 kts | 28° |
| 2026-04-28 01:17 | 51.12176 | 0.99479 | 3109 ft | 133 kts | 59° |
| 2026-04-28 01:17 | 51.12251 | 1.00948 | 3123 ft | 142 kts | 103° |
| 2026-04-28 01:17 | 51.11743 | 1.02280 | 3121 ft | 140 kts | 120° |
| 2026-04-28 01:17 | 51.11158 | 1.03497 | 3123 ft | 137 kts | 121° |
| 2026-04-28 01:18 | 51.10373 | 1.04370 | 3119 ft | 141 kts | 152° |
| 2026-04-28 01:18 | 51.09435 | 1.04872 | 3112 ft | 144 kts | 161° |
| 2026-04-28 01:18 | 51.08421 | 1.04740 | 3110 ft | 150 kts | 198° |
| 2026-04-28 01:18 | 51.07469 | 1.04044 | 3019 ft | 155 kts | 205° |
| 2026-04-28 01:19 | 51.06489 | 1.03256 | 2787 ft | 164 kts | 206° |
| 2026-04-28 01:19 | 51.05476 | 1.02394 | 2515 ft | 164 kts | 207° |
| 2026-04-28 01:19 | 51.04482 | 1.01560 | 2265 ft | 158 kts | 207° |
| 2026-04-28 01:19 | 51.03544 | 1.00772 | 2018 ft | 148 kts | 207° |
| 2026-04-28 01:20 | 51.02651 | 1.00022 | 1777 ft | 141 kts | 206° |
| 2026-04-28 01:20 | 51.01811 | 0.99325 | 1546 ft | 131 kts | 206° |
| 2026-04-28 01:20 | 51.00988 | 0.98645 | 1348 ft | 139 kts | 207° |
| 2026-04-28 01:20 | 51.00108 | 0.97935 | 1199 ft | 142 kts | 202° |
| 2026-04-28 01:21 | 50.99191 | 0.97357 | 1004 ft | 140 kts | 199° |
| 2026-04-28 01:21 | 50.98342 | 0.96691 | 665 ft | 134 kts | 216° |
| 2026-04-28 01:21 | 50.97582 | 0.95897 | 472 ft | 130 kts | 213° |
| 2026-04-28 01:21 | 50.96821 | 0.95135 | 231 ft | 127 kts | 216° |
| 2026-04-28 01:22 | 50.96088 | 0.94390 | 40 ft | 126 kts | 216° |
| 2026-04-28 01:22 | 50.95482 | 0.93762 | 10 ft | 77 kts | 205° |
| 2026-04-28 01:22 | 50.95245 | 0.93528 | 13 ft | 22 kts | 216° |
| 2026-04-28 01:22 | 50.95213 | 0.93494 | 13 ft | 2 kts | 221° |
| 2026-04-28 01:23 | 50.95277 | 0.93438 | 12 ft | 19 kts | 342° |
| 2026-04-28 01:23 | 50.95375 | 0.93479 | 11 ft | 17 kts | 27° |
| 2026-04-28 01:23 | 50.95480 | 0.93585 | 11 ft | 14 kts | 7° |
| 2026-04-28 01:23 | 50.95520 | 0.93550 | 11 ft | 7 kts | 263° |
| 2026-04-28 01:24 | 50.95548 | 0.93531 | 11 ft | 0 kts | 274° |
| 2026-04-28 01:24 | 50.95527 | 0.93486 | 11 ft | 7 kts | 223° |
| 2026-04-28 01:24 | 50.95503 | 0.93461 | 11 ft | 5 kts | 215° |
| 2026-04-28 01:24 | 50.95466 | 0.93464 | 11 ft | 5 kts | 105° |
| 2026-04-28 01:25 | 50.95463 | 0.93475 | 11 ft | 0 kts | 118° |
| 2026-04-28 01:28 | 50.95463 | 0.93474 | 11 ft | 0 kts | 118° |